createdAt,value
2023-03-20T00:00:48.348Z,14.55
2023-03-20T00:02:52.628Z,14.10
2023-03-20T00:04:56.246Z,13.57
2023-03-20T00:07:00.018Z,15.05
2023-03-20T00:09:06.944Z,20.67
2023-03-20T00:11:14.779Z,14.90
2023-03-20T00:13:23.962Z,11.60
2023-03-20T00:15:33.764Z,12.55
2023-03-20T00:17:37.541Z,13.52
2023-03-20T00:19:41.157Z,16.20
2023-03-20T00:21:45.854Z,16.20
2023-03-20T00:23:49.472Z,15.15
2023-03-20T00:25:53.972Z,15.02
2023-03-20T00:27:57.666Z,12.90
2023-03-20T00:30:01.308Z,11.95
2023-03-20T00:32:07.983Z,12.30
2023-03-20T00:34:14.146Z,11.82
2023-03-20T00:36:17.869Z,11.02
2023-03-20T00:38:21.569Z,11.95
2023-03-20T00:40:27.611Z,12.48
2023-03-20T00:42:31.269Z,12.75
2023-03-20T00:44:36.380Z,11.98
2023-03-20T00:46:41.397Z,13.32
2023-03-20T00:48:46.862Z,11.55
2023-03-20T00:50:50.914Z,12.57
2023-03-20T00:52:55.065Z,13.27
2023-03-20T00:54:58.621Z,12.88
2023-03-20T00:57:03.592Z,11.40
2023-03-20T00:59:07.341Z,12.25
2023-03-20T01:01:13.707Z,12.55
2023-03-20T01:03:19.125Z,12.68
2023-03-20T01:05:24.530Z,12.95
2023-03-20T01:07:28.066Z,11.73
2023-03-20T01:09:34.962Z,11.57
2023-03-20T01:11:38.938Z,10.88
2023-03-20T01:13:42.911Z,11.68
2023-03-20T01:15:47.585Z,11.40
2023-03-20T01:17:51.470Z,10.38
2023-03-20T01:19:55.037Z,9.90
2023-03-20T01:22:00.110Z,10.70
2023-03-20T01:24:03.728Z,11.10
2023-03-20T01:26:08.788Z,9.88
2023-03-20T01:28:17.109Z,10.60
2023-03-20T01:30:22.608Z,10.68
2023-03-20T01:32:26.247Z,10.15
2023-03-20T01:34:29.943Z,10.52
2023-03-20T01:36:33.537Z,10.45
2023-03-20T01:38:38.513Z,9.38
2023-03-20T01:40:45.645Z,10.00
2023-03-20T01:42:49.353Z,9.02
2023-03-20T01:44:53.661Z,9.60
2023-03-20T01:46:57.574Z,10.50
2023-03-20T01:49:10.489Z,10.88
2023-03-20T01:51:16.881Z,11.13
2023-03-20T01:53:21.773Z,10.85
2023-03-20T01:55:27.247Z,10.77
2023-03-20T01:57:31.125Z,11.07
2023-03-20T01:59:36.766Z,10.88
2023-03-20T02:01:41.221Z,10.20
2023-03-20T02:03:46.318Z,9.50
2023-03-20T02:05:50.778Z,10.43
2023-03-20T02:07:58.316Z,10.95
2023-03-20T02:10:04.745Z,10.80
2023-03-20T02:12:10.022Z,9.95
2023-03-20T02:14:14.361Z,10.82
2023-03-20T02:16:19.604Z,10.45
2023-03-20T02:18:23.299Z,9.25
2023-03-20T02:20:34.859Z,9.32
2023-03-20T02:22:51.324Z,8.95
2023-03-20T02:25:16.042Z,9.52
2023-03-20T02:27:25.511Z,8.80
2023-03-20T02:29:53.784Z,9.90
2023-03-20T02:32:12.404Z,9.23
2023-03-20T02:34:29.819Z,10.02
2023-03-20T02:36:51.658Z,9.57
2023-03-20T02:39:11.568Z,11.10
2023-03-20T02:41:20.444Z,9.57
2023-03-20T02:43:30.537Z,10.20
2023-03-20T02:45:36.933Z,10.70
2023-03-20T02:47:44.149Z,9.68
2023-03-20T02:49:52.841Z,9.95
2023-03-20T02:51:59.153Z,8.75
2023-03-20T02:54:07.271Z,10.02
2023-03-20T02:56:14.636Z,9.23
2023-03-20T02:58:23.363Z,9.10
2023-03-20T03:00:29.845Z,8.75
2023-03-20T03:02:35.857Z,9.30
2023-03-20T03:04:40.818Z,10.20
2023-03-20T03:06:46.137Z,9.80
2023-03-20T03:08:51.368Z,9.13
2023-03-20T03:10:56.930Z,9.13
2023-03-20T03:13:01.035Z,9.60
2023-03-20T03:15:08.834Z,9.85
2023-03-20T03:17:13.411Z,9.50
2023-03-20T03:19:19.339Z,10.25
2023-03-20T03:21:23.798Z,10.07
2023-03-20T03:23:28.989Z,9.10
2023-03-20T03:25:35.050Z,9.00
2023-03-20T03:27:40.443Z,9.75
2023-03-20T03:29:44.226Z,10.48
2023-03-20T03:31:49.160Z,10.23
2023-03-20T03:33:54.009Z,8.95
2023-03-20T03:35:59.600Z,9.70
2023-03-20T03:38:04.512Z,10.10
2023-03-20T03:40:13.867Z,9.63
2023-03-20T03:42:22.757Z,9.98
2023-03-20T03:44:29.463Z,8.93
2023-03-20T03:46:36.514Z,9.80
2023-03-20T03:48:45.462Z,9.90
2023-03-20T03:50:51.431Z,8.93
2023-03-20T03:52:57.757Z,9.73
2023-03-20T03:55:02.784Z,8.82
2023-03-20T03:57:07.497Z,9.10
2023-03-20T03:59:13.430Z,9.80
2023-03-20T04:01:18.893Z,9.43
2023-03-20T04:03:24.297Z,9.40
2023-03-20T04:05:31.686Z,8.73
2023-03-20T04:07:35.356Z,9.70
2023-03-20T04:09:39.021Z,9.75
2023-03-20T04:11:42.710Z,9.48
2023-03-20T04:13:46.792Z,8.80
2023-03-20T04:15:50.502Z,9.23
2023-03-20T04:17:54.162Z,8.90
2023-03-20T04:19:57.924Z,9.30
2023-03-20T04:22:02.988Z,10.00
2023-03-20T04:24:06.825Z,10.90
2023-03-20T04:26:10.528Z,9.68
2023-03-20T04:28:16.383Z,10.68
2023-03-20T04:30:20.387Z,9.23
2023-03-20T04:32:23.985Z,9.23
2023-03-20T04:34:27.604Z,10.02
2023-03-20T04:36:31.282Z,9.95
2023-03-20T04:38:37.097Z,9.38
2023-03-20T04:40:40.647Z,10.57
2023-03-20T04:42:44.321Z,9.52
2023-03-20T04:44:47.940Z,10.82
2023-03-20T04:46:51.688Z,9.30
2023-03-20T04:48:55.301Z,11.02
2023-03-20T04:50:58.883Z,9.23
2023-03-20T04:53:03.415Z,9.73
2023-03-20T04:55:09.187Z,9.20
2023-03-20T04:57:13.926Z,9.60
2023-03-20T04:59:17.550Z,9.63
2023-03-20T05:01:23.954Z,9.35
2023-03-20T05:03:27.873Z,9.65
2023-03-20T05:05:33.107Z,9.95
2023-03-20T05:07:36.831Z,10.30
2023-03-20T05:09:40.403Z,11.63
2023-03-20T05:11:45.356Z,11.10
2023-03-20T05:13:49.059Z,11.88
2023-03-20T05:15:53.780Z,11.23
2023-03-20T05:17:57.684Z,10.38
2023-03-20T05:20:01.440Z,10.20
2023-03-20T05:22:05.057Z,9.60
2023-03-20T05:24:08.974Z,10.48
2023-03-20T05:26:13.425Z,10.23
2023-03-20T05:28:18.331Z,11.55
2023-03-20T05:30:22.423Z,11.57
2023-03-20T05:32:26.227Z,10.40
2023-03-20T05:34:29.854Z,9.38
2023-03-20T05:36:35.573Z,10.52
2023-03-20T05:38:39.178Z,10.23
2023-03-20T05:40:43.378Z,9.20
2023-03-20T05:42:47.085Z,10.40
2023-03-20T05:44:52.059Z,9.60
2023-03-20T05:46:55.612Z,10.95
2023-03-20T05:48:59.300Z,11.85
2023-03-20T05:51:03.102Z,13.48
2023-03-20T05:53:07.562Z,10.75
2023-03-20T05:55:13.852Z,11.63
2023-03-20T05:57:17.716Z,9.82
2023-03-20T05:59:23.975Z,9.10
2023-03-20T06:01:29.283Z,11.18
2023-03-20T06:03:33.262Z,10.98
2023-03-20T06:05:37.738Z,12.23
2023-03-20T06:07:41.655Z,10.10
2023-03-20T06:09:45.420Z,10.48
2023-03-20T06:11:49.027Z,9.93
2023-03-20T06:13:54.863Z,10.00
2023-03-20T06:15:58.621Z,11.10
2023-03-20T06:18:03.719Z,10.60
2023-03-20T06:20:08.384Z,12.77
2023-03-20T06:22:12.213Z,10.00
2023-03-20T06:24:16.014Z,12.07
2023-03-20T06:26:19.685Z,11.13
2023-03-20T06:28:23.594Z,10.60
2023-03-20T06:30:27.226Z,11.45
2023-03-20T06:32:31.350Z,10.50
2023-03-20T06:34:36.847Z,9.20
2023-03-20T06:36:40.361Z,10.98
2023-03-20T06:38:44.057Z,10.55
2023-03-20T06:40:47.616Z,9.75
2023-03-20T06:42:51.212Z,10.10
2023-03-20T06:44:55.003Z,8.73
2023-03-20T06:46:58.889Z,9.90
2023-03-20T06:49:02.701Z,10.17
2023-03-20T06:51:08.003Z,8.97
2023-03-20T06:53:11.628Z,9.70
2023-03-20T06:55:15.772Z,8.90
2023-03-20T06:57:19.510Z,10.00
2023-03-20T06:59:23.827Z,10.23
2023-03-20T07:01:28.308Z,8.50
2023-03-20T07:03:32.137Z,8.47
2023-03-20T07:05:36.417Z,8.10
2023-03-20T07:07:41.730Z,7.57
2023-03-20T07:09:45.549Z,8.03
2023-03-20T07:11:49.036Z,8.30
2023-03-20T07:13:52.995Z,7.53
2023-03-20T07:16:04.519Z,8.00
2023-03-20T07:18:08.695Z,8.13
2023-03-20T07:20:13.129Z,7.63
2023-03-20T07:22:20.184Z,8.20
2023-03-20T07:24:25.363Z,9.60
2023-03-20T07:26:29.220Z,8.10
2023-03-20T07:28:32.949Z,8.67
2023-03-20T07:30:36.621Z,8.20
2023-03-20T07:32:41.297Z,8.33
2023-03-20T07:34:45.039Z,7.73
2023-03-20T07:36:48.716Z,6.70
2023-03-20T07:38:52.270Z,7.30
2023-03-20T07:40:58.190Z,7.47
2023-03-20T07:43:02.024Z,7.53
2023-03-20T07:45:06.857Z,6.17
2023-03-20T07:47:11.882Z,6.10
2023-03-20T07:49:18.317Z,7.37
2023-03-20T07:51:21.992Z,6.70
2023-03-20T07:53:25.813Z,7.43
2023-03-20T07:55:29.611Z,6.80
2023-03-20T07:57:34.959Z,7.07
2023-03-20T07:59:38.666Z,7.50
2023-03-20T08:01:42.562Z,7.10
2023-03-20T08:03:46.532Z,7.63
2023-03-20T08:05:50.260Z,9.67
2023-03-20T08:07:54.192Z,6.77
2023-03-20T08:09:58.050Z,9.60
2023-03-20T08:12:01.797Z,7.30
2023-03-20T08:14:07.110Z,7.10
2023-03-20T08:16:11.704Z,6.20
2023-03-20T08:18:15.433Z,7.47
2023-03-20T08:20:19.952Z,7.43
2023-03-20T08:22:23.632Z,6.87
2023-03-20T08:24:27.328Z,6.37
2023-03-20T08:26:31.254Z,7.23
2023-03-20T08:28:48.765Z,5.70
2023-03-20T08:30:54.631Z,4.80
2023-03-20T08:32:59.189Z,4.40
2023-03-20T08:35:03.052Z,5.53
2023-03-20T08:37:08.164Z,5.73
2023-03-20T08:39:12.009Z,4.50
2023-03-20T08:41:15.582Z,6.23
2023-03-20T08:43:19.368Z,6.00
2023-03-20T08:45:26.004Z,4.43
2023-03-20T08:47:31.264Z,8.97
2023-03-20T08:49:35.176Z,4.77
2023-03-20T08:51:38.876Z,4.70
2023-03-20T08:53:42.618Z,4.20
2023-03-20T08:55:49.401Z,4.90
2023-03-20T08:57:54.532Z,4.23
2023-03-20T08:59:58.103Z,5.83
2023-03-20T09:02:01.795Z,5.73
2023-03-20T09:04:07.023Z,5.40
2023-03-20T09:06:11.209Z,4.77
2023-03-20T09:08:14.893Z,5.37
2023-03-20T09:10:18.532Z,5.20
2023-03-20T09:12:22.142Z,4.57
2023-03-20T09:14:26.148Z,5.03
2023-03-20T09:16:29.912Z,5.77
2023-03-20T09:18:33.849Z,4.87
2023-03-20T09:20:38.772Z,4.20
2023-03-20T09:22:44.084Z,3.90
2023-03-20T09:24:47.842Z,4.63
2023-03-20T09:26:52.265Z,3.80
2023-03-20T09:28:56.020Z,4.10
2023-03-20T09:31:00.467Z,3.97
2023-03-20T09:33:04.071Z,3.60
2023-03-20T09:35:08.124Z,3.80
2023-03-20T09:37:13.595Z,4.50
2023-03-20T09:39:17.103Z,4.17
2023-03-20T09:41:23.048Z,4.10
2023-03-20T09:43:30.911Z,4.10
2023-03-20T09:45:43.021Z,4.77
2023-03-20T09:47:52.675Z,5.33
2023-03-20T09:50:03.615Z,4.37
2023-03-20T09:52:12.844Z,5.83
2023-03-20T09:54:22.061Z,4.63
2023-03-20T09:56:27.614Z,4.40
2023-03-20T09:58:33.874Z,3.80
2023-03-20T10:00:38.138Z,5.30
2023-03-20T10:02:46.085Z,4.83
2023-03-20T10:04:50.879Z,3.83
2023-03-20T10:06:55.669Z,3.70
2023-03-20T10:08:59.502Z,3.33
2023-03-20T10:11:08.557Z,3.33
2023-03-20T10:13:19.954Z,3.10
2023-03-20T10:15:26.924Z,3.47
2023-03-20T10:17:39.224Z,3.30
2023-03-20T10:19:45.477Z,3.47
2023-03-20T10:21:50.028Z,3.77
2023-03-20T10:23:57.617Z,3.83
2023-03-20T10:26:02.545Z,2.70
2023-03-20T10:28:13.592Z,4.20
2023-03-20T10:30:24.796Z,3.10
2023-03-20T10:32:31.869Z,2.77
2023-03-20T10:34:43.766Z,2.70
2023-03-20T10:36:52.382Z,3.63
2023-03-20T10:39:00.202Z,4.37
2023-03-20T10:41:04.605Z,3.67
2023-03-20T10:43:13.696Z,3.50
2023-03-20T10:45:22.984Z,3.93
2023-03-20T10:47:28.774Z,3.70
2023-03-20T10:49:36.614Z,3.93
2023-03-20T10:51:42.848Z,3.00
2023-03-20T10:53:49.011Z,3.83
2023-03-20T10:55:53.016Z,3.27
2023-03-20T10:57:59.912Z,4.13
2023-03-20T11:00:11.090Z,5.40
2023-03-20T11:02:16.304Z,5.73
2023-03-20T11:04:20.232Z,5.00
2023-03-20T11:06:25.782Z,6.20
2023-03-20T11:08:33.830Z,6.57
2023-03-20T11:10:38.691Z,5.90
2023-03-20T11:12:43.719Z,4.80
2023-03-20T11:14:47.514Z,6.37
2023-03-20T11:16:53.187Z,7.20
2023-03-20T11:18:56.869Z,6.30
2023-03-20T11:21:01.029Z,6.60
2023-03-20T11:23:05.477Z,6.33
2023-03-20T11:25:10.048Z,6.57
2023-03-20T11:27:15.217Z,7.67
2023-03-20T11:29:21.866Z,7.13
2023-03-20T11:31:29.859Z,8.17
2023-03-20T11:33:37.807Z,6.70
2023-03-20T11:35:46.864Z,5.87
2023-03-20T11:37:52.894Z,7.77
2023-03-20T11:39:59.600Z,7.70
2023-03-20T11:42:04.022Z,7.40
2023-03-20T11:44:22.934Z,5.80
2023-03-20T11:46:26.955Z,7.00
2023-03-20T11:48:38.561Z,6.67
2023-03-20T11:50:45.065Z,7.10
2023-03-20T11:52:48.728Z,7.47
2023-03-20T11:54:53.870Z,7.53
2023-03-20T11:56:58.456Z,7.67
2023-03-20T11:59:05.740Z,7.70
2023-03-20T12:01:10.726Z,8.23
2023-03-20T12:03:33.056Z,7.50
2023-03-20T12:05:39.982Z,7.00
2023-03-20T12:07:44.945Z,8.30
2023-03-20T12:09:50.675Z,6.97
2023-03-20T12:11:55.945Z,6.53
2023-03-20T12:14:01.619Z,7.53
2023-03-20T12:16:06.832Z,6.40
2023-03-20T12:18:14.013Z,6.73
2023-03-20T12:20:23.857Z,5.90
2023-03-20T12:22:31.278Z,6.17
2023-03-20T12:24:38.868Z,6.50
2023-03-20T12:26:46.286Z,6.30
2023-03-20T12:28:52.531Z,5.60
2023-03-20T12:31:15.631Z,5.50
2023-03-20T12:33:22.962Z,6.87
2023-03-20T12:35:31.938Z,5.93
2023-03-20T12:37:37.549Z,5.93
2023-03-20T12:39:45.236Z,7.33
2023-03-20T12:41:56.098Z,5.47
2023-03-20T12:44:17.461Z,5.53
2023-03-20T12:46:26.923Z,5.53
2023-03-20T12:48:44.285Z,5.80
2023-03-20T12:50:50.474Z,5.03
2023-03-20T12:52:58.740Z,5.27
2023-03-20T12:55:08.247Z,5.87
2023-03-20T12:57:16.738Z,4.80
2023-03-20T12:59:24.454Z,4.83
2023-03-20T13:01:31.248Z,4.87
2023-03-20T13:03:49.997Z,4.30
2023-03-20T13:05:59.235Z,5.27
2023-03-20T13:08:14.147Z,4.50
2023-03-20T13:10:21.934Z,4.47
2023-03-20T13:12:29.171Z,5.73
2023-03-20T13:14:37.270Z,5.03
2023-03-20T13:16:46.666Z,4.80
2023-03-20T13:18:55.075Z,5.43
2023-03-20T13:20:59.099Z,5.00
2023-03-20T13:23:11.098Z,4.80
2023-03-20T13:25:20.987Z,4.70
2023-03-20T13:27:33.226Z,4.57
2023-03-20T13:29:44.224Z,4.63
2023-03-20T13:31:53.589Z,4.00
2023-03-20T13:33:59.915Z,4.00
2023-03-20T13:36:05.639Z,4.93
2023-03-20T13:38:14.290Z,3.50
2023-03-20T13:40:21.867Z,3.40
2023-03-20T13:42:26.387Z,4.27
2023-03-20T13:44:31.387Z,4.03
2023-03-20T13:46:37.038Z,3.93
2023-03-20T13:48:41.953Z,4.43
2023-03-20T13:50:50.278Z,5.60
2023-03-20T13:52:58.599Z,3.20
2023-03-20T13:55:11.812Z,3.20
2023-03-20T13:57:22.008Z,3.80
2023-03-20T13:59:42.221Z,4.27
2023-03-20T14:01:51.102Z,4.73
2023-03-20T14:03:55.849Z,3.73
2023-03-20T14:05:59.811Z,3.50
2023-03-20T14:08:22.264Z,3.60
2023-03-20T14:10:37.524Z,2.90
2023-03-20T14:12:41.321Z,3.20
2023-03-20T14:14:48.196Z,2.60
2023-03-20T14:17:02.000Z,2.60
2023-03-20T14:19:12.899Z,2.70
2023-03-20T14:21:19.898Z,2.60
2023-03-20T14:23:29.312Z,2.43
2023-03-20T14:25:39.319Z,2.27
2023-03-20T14:27:57.842Z,1.70
2023-03-20T14:30:21.474Z,2.43
2023-03-20T14:32:31.628Z,1.60
2023-03-20T14:34:46.890Z,2.50
2023-03-20T14:36:58.391Z,2.20
2023-03-20T14:39:12.108Z,2.70
2023-03-20T14:41:18.910Z,2.33
2023-03-20T14:43:28.351Z,3.27
2023-03-20T14:45:37.679Z,2.43
2023-03-20T14:47:47.694Z,2.90
2023-03-20T14:49:53.510Z,2.93
2023-03-20T14:52:02.488Z,2.90
2023-03-20T14:54:20.925Z,2.63
2023-03-20T14:56:29.325Z,3.00
2023-03-20T14:58:49.059Z,3.37
2023-03-20T15:00:52.813Z,2.93
2023-03-20T15:03:00.969Z,3.53
2023-03-20T15:05:05.107Z,3.07
2023-03-20T15:07:15.847Z,2.40
2023-03-20T15:09:22.649Z,2.93
2023-03-20T15:11:26.583Z,2.53
2023-03-20T15:13:31.192Z,3.10
2023-03-20T15:15:36.229Z,2.43
2023-03-20T15:17:41.370Z,4.10
2023-03-20T15:19:45.031Z,3.00
2023-03-20T15:21:49.486Z,2.87
2023-03-20T15:23:53.083Z,3.53
2023-03-20T15:25:56.849Z,3.10
2023-03-20T15:28:00.648Z,2.60
2023-03-20T15:30:05.033Z,2.53
2023-03-20T15:32:15.124Z,3.43
2023-03-20T15:34:21.195Z,2.90
2023-03-20T15:36:27.235Z,2.67
2023-03-20T15:38:32.371Z,2.80
2023-03-20T15:40:50.538Z,3.57
2023-03-20T15:42:55.746Z,3.63
2023-03-20T15:44:59.632Z,3.70
2023-03-20T15:47:05.166Z,2.80
2023-03-20T15:49:10.109Z,3.27
2023-03-20T15:51:14.321Z,3.20
2023-03-20T15:53:19.958Z,4.00
2023-03-20T15:55:26.013Z,3.33
2023-03-20T15:57:35.334Z,2.83
2023-03-20T15:59:39.543Z,3.13
2023-03-20T16:01:43.142Z,3.40
2023-03-20T16:03:47.071Z,3.40
2023-03-20T16:05:53.018Z,2.90
2023-03-20T16:07:57.223Z,3.87
2023-03-20T16:10:00.958Z,3.03
2023-03-20T16:12:05.042Z,3.47
2023-03-20T16:14:09.863Z,3.83
2023-03-20T16:16:16.029Z,2.70
2023-03-20T16:18:20.226Z,4.00
2023-03-20T16:20:24.236Z,3.17
2023-03-20T16:22:30.407Z,3.40
2023-03-20T16:24:38.403Z,3.10
2023-03-20T16:26:43.554Z,3.23
2023-03-20T16:28:48.347Z,4.37
2023-03-20T16:30:53.010Z,3.50
2023-03-20T16:32:58.404Z,2.90
2023-03-20T16:35:04.265Z,2.47
2023-03-20T16:37:09.595Z,2.77
2023-03-20T16:39:21.125Z,2.63
2023-03-20T16:41:29.206Z,2.50
2023-03-20T16:43:33.426Z,3.43
2023-03-20T16:45:38.618Z,2.87
2023-03-20T16:47:42.781Z,2.93
2023-03-20T16:49:53.825Z,2.30
2023-03-20T16:51:59.687Z,3.20
2023-03-20T16:54:04.791Z,3.13
2023-03-20T16:56:13.328Z,2.97
2023-03-20T16:58:19.171Z,2.00
2023-03-20T17:00:27.417Z,2.70
2023-03-20T17:02:32.086Z,2.60
2023-03-20T17:04:36.630Z,4.17
2023-03-20T17:06:45.325Z,4.27
2023-03-20T17:08:51.103Z,4.67
2023-03-20T17:10:57.568Z,3.90
2023-03-20T17:13:02.708Z,3.60
2023-03-20T17:15:06.785Z,3.07
2023-03-20T17:17:14.014Z,3.10
2023-03-20T17:19:18.160Z,3.07
2023-03-20T17:21:21.778Z,3.17
2023-03-20T17:23:25.415Z,3.00
2023-03-20T17:25:29.001Z,3.50
2023-03-20T17:27:33.416Z,4.67
2023-03-20T17:29:38.531Z,4.73
2023-03-20T17:31:42.174Z,3.60
2023-03-20T17:33:46.936Z,3.83
2023-03-20T17:35:51.032Z,4.17
2023-03-20T17:37:54.919Z,5.87
2023-03-20T17:39:58.602Z,6.63
2023-03-20T17:42:02.428Z,11.70
2023-03-20T17:44:06.202Z,14.80
2023-03-20T17:46:12.056Z,13.30
2023-03-20T17:48:16.857Z,12.07
2023-03-20T17:50:20.915Z,10.23
2023-03-20T17:52:25.570Z,9.37
2023-03-20T17:54:29.155Z,7.20
2023-03-20T17:56:33.066Z,7.93
2023-03-20T17:58:37.089Z,9.17
2023-03-20T18:00:40.691Z,9.87
2023-03-20T18:02:46.185Z,9.90
2023-03-20T18:04:50.272Z,11.17
2023-03-20T18:06:54.031Z,8.27
2023-03-20T18:08:58.210Z,7.30
2023-03-20T18:11:01.900Z,7.90
2023-03-20T18:13:05.810Z,7.37
2023-03-20T18:15:10.120Z,7.40
2023-03-20T18:17:14.054Z,9.63
2023-03-20T18:19:24.389Z,18.73
2023-03-20T18:21:27.913Z,16.30
2023-03-20T18:23:31.488Z,18.53
2023-03-20T18:25:35.095Z,13.90
2023-03-20T18:27:38.668Z,16.30
2023-03-20T18:29:42.164Z,13.43
2023-03-20T18:31:47.066Z,12.87
2023-03-20T18:33:51.545Z,12.87
2023-03-20T18:35:56.584Z,11.00
2023-03-20T18:38:00.816Z,10.83
2023-03-20T18:40:04.592Z,14.10
2023-03-20T18:42:08.150Z,13.23
2023-03-20T18:44:11.662Z,11.00
2023-03-20T18:46:15.922Z,9.23
2023-03-20T18:48:19.506Z,9.13
2023-03-20T18:50:25.700Z,7.17
2023-03-20T18:52:31.401Z,6.50
2023-03-20T18:54:35.194Z,6.07
2023-03-20T18:56:38.881Z,6.20
2023-03-20T18:58:42.467Z,6.13
2023-03-20T19:00:46.286Z,6.40
2023-03-20T19:02:50.144Z,6.30
2023-03-20T19:04:53.998Z,7.37
2023-03-20T19:06:57.693Z,6.40
2023-03-20T19:09:05.029Z,8.23
2023-03-20T19:11:15.378Z,7.07
2023-03-20T19:13:21.278Z,7.67
2023-03-20T19:15:25.699Z,7.43
2023-03-20T19:17:29.277Z,7.27
2023-03-20T19:19:32.929Z,10.20
2023-03-20T19:21:37.171Z,8.47
2023-03-20T19:23:40.821Z,8.33
2023-03-20T19:25:46.386Z,8.20
2023-03-20T19:27:49.989Z,7.17
2023-03-20T19:29:57.151Z,7.27
2023-03-20T19:32:00.783Z,6.33
2023-03-20T19:34:04.417Z,6.70
2023-03-20T19:36:08.524Z,6.80
2023-03-20T19:38:15.179Z,5.90
2023-03-20T19:40:25.496Z,6.60
2023-03-20T19:42:53.064Z,6.50
2023-03-20T19:44:54.335Z,6.37
2023-03-20T19:46:57.994Z,6.40
2023-03-20T19:49:01.553Z,6.00
2023-03-20T19:51:05.582Z,6.00
2023-03-20T19:53:10.185Z,5.23
2023-03-20T19:55:15.025Z,5.87
2023-03-20T19:57:18.578Z,4.83
2023-03-20T19:59:23.768Z,5.10
2023-03-20T20:01:27.693Z,5.23
2023-03-20T20:03:31.443Z,4.80
2023-03-20T20:05:36.040Z,4.80
2023-03-20T20:08:16.535Z,4.03
2023-03-20T20:10:03.634Z,3.90
2023-03-20T20:12:07.582Z,4.30
2023-03-20T20:14:14.498Z,4.10
2023-03-20T20:16:20.104Z,3.73
2023-03-20T20:18:24.961Z,4.67
2023-03-20T20:20:30.081Z,5.70
2023-03-20T20:22:33.725Z,4.57
2023-03-20T20:24:37.392Z,5.10
2023-03-20T20:26:51.418Z,5.38
2023-03-20T20:28:58.020Z,5.20
2023-03-20T20:31:01.552Z,5.20
2023-03-20T20:33:09.529Z,4.88
2023-03-20T20:35:43.568Z,5.72
2023-03-20T20:38:27.012Z,4.28
2023-03-20T20:40:06.245Z,3.75
2023-03-20T20:42:09.885Z,4.25
2023-03-20T20:44:16.394Z,5.18
2023-03-20T20:46:21.233Z,2.60
2023-03-20T20:48:26.867Z,3.50
2023-03-20T20:50:31.100Z,3.75
2023-03-20T20:52:39.190Z,3.53
2023-03-20T20:54:44.513Z,3.00
2023-03-20T20:56:48.017Z,3.40
2023-03-20T20:58:51.716Z,3.55
2023-03-20T21:00:57.766Z,1.92
2023-03-20T21:03:01.513Z,2.13
2023-03-20T21:05:06.893Z,1.50
2023-03-20T21:07:12.866Z,1.50
2023-03-20T21:09:16.722Z,1.63
2023-03-20T21:11:21.275Z,1.45
2023-03-20T21:13:25.175Z,0.82
2023-03-20T21:15:28.786Z,0.98
2023-03-20T21:17:32.370Z,1.30
2023-03-20T21:19:37.255Z,0.98
2023-03-20T21:21:42.321Z,1.00
2023-03-20T21:23:49.954Z,1.10
2023-03-20T21:25:53.639Z,1.23
2023-03-20T21:27:57.387Z,1.30
2023-03-20T21:30:01.803Z,1.67
2023-03-20T21:32:05.723Z,1.20
2023-03-20T21:34:09.457Z,1.07
2023-03-20T21:36:13.227Z,1.10
2023-03-20T21:40:42.319Z,1.30
2023-03-20T21:42:46.106Z,1.42
2023-03-20T21:46:04.001Z,1.30
2023-03-20T21:57:44.425Z,1.33
2023-03-20T22:02:06.436Z,1.60
2023-03-20T22:09:45.550Z,1.67
2023-03-20T22:14:40.708Z,2.10
2023-03-20T22:19:18.443Z,1.25
2023-03-20T22:21:29.996Z,1.50
2023-03-20T22:24:01.714Z,1.55
2023-03-20T22:26:23.906Z,1.42
2023-03-20T22:28:48.626Z,1.40
2023-03-20T22:31:19.266Z,1.42
2023-03-20T22:42:51.373Z,1.33
2023-03-20T22:45:00.504Z,1.83
2023-03-20T22:47:06.772Z,1.55
2023-03-20T22:49:11.451Z,1.92
2023-03-20T22:51:16.486Z,1.42
2023-03-20T22:53:22.228Z,1.63
2023-03-20T22:55:29.234Z,2.47
2023-03-20T22:57:42.317Z,1.70
2023-03-20T22:59:50.433Z,1.55
2023-03-20T23:01:54.276Z,1.58
2023-03-20T23:03:57.776Z,1.73
2023-03-20T23:06:07.483Z,1.50
2023-03-20T23:08:13.018Z,1.63
2023-03-20T23:10:16.687Z,1.70
2023-03-20T23:12:20.305Z,1.40
2023-03-20T23:14:25.013Z,1.45
2023-03-20T23:16:31.511Z,1.77
2023-03-20T23:18:35.111Z,1.40
2023-03-20T23:20:38.725Z,1.70
2023-03-20T23:22:42.573Z,1.90
2023-03-20T23:24:46.288Z,1.70
2023-03-20T23:26:49.992Z,1.75
2023-03-20T23:28:53.938Z,1.15
2023-03-20T23:31:09.748Z,2.33
2023-03-20T23:33:15.832Z,1.55
2023-03-20T23:35:19.543Z,1.50
2023-03-20T23:37:23.229Z,1.40
2023-03-20T23:39:26.829Z,1.50
2023-03-20T23:43:54.544Z,1.95
2023-03-20T23:45:58.166Z,1.50
2023-03-20T23:48:01.826Z,1.55
2023-03-20T23:50:09.668Z,1.58
2023-03-20T23:52:13.617Z,1.20
2023-03-20T23:54:17.350Z,1.20
2023-03-20T23:56:21.246Z,1.90
2023-03-20T23:58:26.434Z,1.63
